createdAt,value
2018-12-03T00:00:15.727Z,985.5
2018-12-03T00:03:14.915Z,985.3
2018-12-03T00:06:15.486Z,985.3
2018-12-03T00:09:15.742Z,985.3
2018-12-03T00:12:15.252Z,985.4
2018-12-03T00:15:15.750Z,985.5
2018-12-03T00:18:15.366Z,985.5
2018-12-03T00:21:15.107Z,985.6
2018-12-03T00:24:15.175Z,985.5
2018-12-03T00:27:15.722Z,985.3
2018-12-03T00:30:15.784Z,985.2
2018-12-03T00:33:15.009Z,985.1
2018-12-03T00:36:14.910Z,985.0
2018-12-03T00:39:15.088Z,985.0
2018-12-03T00:42:15.081Z,985.0
2018-12-03T00:45:14.998Z,985.0
2018-12-03T00:48:15.100Z,984.9
2018-12-03T00:51:14.953Z,984.9
2018-12-03T00:54:15.446Z,984.9
2018-12-03T00:57:15.202Z,984.9
2018-12-03T01:00:14.991Z,984.7
2018-12-03T01:03:15.152Z,984.9
2018-12-03T01:06:15.059Z,984.9
2018-12-03T01:09:15.083Z,985.0
2018-12-03T01:12:15.069Z,985.0
2018-12-03T01:15:15.124Z,985.1
2018-12-03T01:18:14.970Z,985.1
2018-12-03T01:21:15.159Z,985.1
2018-12-03T01:24:15.136Z,985.2
2018-12-03T01:27:15.179Z,985.2
2018-12-03T01:30:14.941Z,985.3
2018-12-03T01:33:15.123Z,985.4
2018-12-03T01:36:15.325Z,985.5
2018-12-03T01:39:15.133Z,985.6
2018-12-03T01:42:14.944Z,985.6
2018-12-03T01:45:15.816Z,985.6
2018-12-03T01:48:15.715Z,985.7
2018-12-03T01:51:15.642Z,985.6
2018-12-03T01:54:15.383Z,985.7
2018-12-03T01:57:15.398Z,985.6
2018-12-03T02:00:15.523Z,985.5
2018-12-03T02:03:15.590Z,985.4
2018-12-03T02:06:15.584Z,985.5
2018-12-03T02:09:15.620Z,985.4
2018-12-03T02:12:15.490Z,985.4
2018-12-03T02:15:15.743Z,985.3
2018-12-03T02:18:15.733Z,985.4
2018-12-03T02:21:15.840Z,985.4
2018-12-03T02:24:15.758Z,985.4
2018-12-03T02:27:15.770Z,985.4
2018-12-03T02:30:15.835Z,985.5
2018-12-03T02:33:15.721Z,985.4
2018-12-03T02:36:14.854Z,985.3
2018-12-03T02:39:15.661Z,985.3
2018-12-03T02:42:15.626Z,985.2
2018-12-03T02:45:15.775Z,985.3
2018-12-03T02:48:15.729Z,985.3
2018-12-03T02:51:15.775Z,985.4
2018-12-03T02:54:15.515Z,985.3
2018-12-03T02:57:15.690Z,985.3
2018-12-03T03:00:15.417Z,985.3
2018-12-03T03:03:15.175Z,985.3
2018-12-03T03:06:15.040Z,985.3
2018-12-03T03:09:15.273Z,985.3
2018-12-03T03:12:15.266Z,985.3
2018-12-03T03:15:15.105Z,985.3
2018-12-03T03:18:15.134Z,985.4
2018-12-03T03:21:15.237Z,985.2
2018-12-03T03:24:15.166Z,985.2
2018-12-03T03:27:15.297Z,985.1
2018-12-03T03:30:15.297Z,985.1
2018-12-03T03:33:15.138Z,985.2
2018-12-03T03:36:20.625Z,985.3
2018-12-03T03:39:15.824Z,985.3
2018-12-03T03:42:15.386Z,985.3
2018-12-03T03:45:15.804Z,985.3
2018-12-03T03:48:15.898Z,985.3
2018-12-03T03:51:15.140Z,985.3
2018-12-03T03:54:15.137Z,985.3
2018-12-03T03:57:15.539Z,985.3
2018-12-03T04:00:15.919Z,985.1
2018-12-03T04:03:15.770Z,985.0
2018-12-03T04:06:15.553Z,985.0
2018-12-03T04:09:15.767Z,985.2
2018-12-03T04:12:15.045Z,985.3
2018-12-03T04:15:15.264Z,985.4
2018-12-03T04:18:15.991Z,985.4
2018-12-03T04:21:15.846Z,985.5
2018-12-03T04:24:15.138Z,985.3
2018-12-03T04:27:15.475Z,985.4
2018-12-03T04:30:15.629Z,985.4
2018-12-03T04:33:16.112Z,985.4
2018-12-03T04:36:15.306Z,985.4
2018-12-03T04:39:15.651Z,985.4
2018-12-03T04:42:15.968Z,985.5
2018-12-03T04:45:15.382Z,985.6
2018-12-03T04:48:15.662Z,985.6
2018-12-03T04:51:15.208Z,985.6
2018-12-03T04:54:15.445Z,985.5
2018-12-03T04:57:15.501Z,985.5
2018-12-03T05:00:15.727Z,985.5
2018-12-03T05:03:15.652Z,985.8
2018-12-03T05:06:15.614Z,985.7
2018-12-03T05:09:15.607Z,985.5
2018-12-03T05:12:15.396Z,985.4
2018-12-03T05:15:15.778Z,985.4
2018-12-03T05:18:15.515Z,985.5
2018-12-03T05:21:15.268Z,985.4
2018-12-03T05:24:15.827Z,985.3
2018-12-03T05:27:15.626Z,985.5
2018-12-03T05:30:15.179Z,985.3
2018-12-03T05:33:14.947Z,985.5
2018-12-03T05:36:15.656Z,985.5
2018-12-03T05:39:15.191Z,985.5
2018-12-03T05:42:15.634Z,985.4
2018-12-03T05:45:15.309Z,985.6
2018-12-03T05:48:15.126Z,985.6
2018-12-03T05:51:15.704Z,985.5
2018-12-03T05:54:15.418Z,985.5
2018-12-03T05:57:15.019Z,985.3
2018-12-03T06:00:16.192Z,985.4
2018-12-03T06:03:15.868Z,985.5
2018-12-03T06:06:15.800Z,985.5
2018-12-03T06:09:15.338Z,985.5
2018-12-03T06:12:15.111Z,985.5
2018-12-03T06:15:15.143Z,985.4
2018-12-03T06:18:14.917Z,985.5
2018-12-03T06:21:15.537Z,985.6
2018-12-03T06:24:15.260Z,985.5
2018-12-03T06:27:15.903Z,985.5
2018-12-03T06:30:15.566Z,985.5
2018-12-03T06:33:15.354Z,985.5
2018-12-03T06:36:14.874Z,985.5
2018-12-03T06:39:15.450Z,985.4
2018-12-03T06:42:14.972Z,985.5
2018-12-03T06:45:15.641Z,985.5
2018-12-03T06:48:15.862Z,985.5
2018-12-03T06:51:15.574Z,985.5
2018-12-03T06:54:15.529Z,985.5
2018-12-03T06:57:15.319Z,985.6
2018-12-03T07:00:15.935Z,985.5
2018-12-03T07:03:15.620Z,985.6
2018-12-03T07:06:15.552Z,985.6
2018-12-03T07:09:15.214Z,985.5
2018-12-03T07:12:15.833Z,985.6
2018-12-03T07:15:15.522Z,985.7
2018-12-03T07:18:15.351Z,985.6
2018-12-03T07:21:15.408Z,985.6
2018-12-03T07:24:15.112Z,985.7
2018-12-03T07:27:14.925Z,985.7
2018-12-03T07:30:15.785Z,985.8
2018-12-03T07:33:15.274Z,985.8
2018-12-03T07:36:15.119Z,985.8
2018-12-03T07:39:15.800Z,985.8
2018-12-03T07:42:15.348Z,985.6
2018-12-03T07:45:15.391Z,985.6
2018-12-03T07:48:15.590Z,985.6
2018-12-03T07:51:15.434Z,985.7
2018-12-03T07:54:15.237Z,985.6
2018-12-03T07:57:15.853Z,985.7
2018-12-03T08:00:15.599Z,985.8
2018-12-03T08:03:15.349Z,985.8
2018-12-03T08:06:15.883Z,985.8
2018-12-03T08:09:15.452Z,985.9
2018-12-03T08:12:15.061Z,985.9
2018-12-03T08:15:15.739Z,985.9
2018-12-03T08:18:15.479Z,985.9
2018-12-03T08:21:14.999Z,985.9
2018-12-03T08:24:15.595Z,985.8
2018-12-03T08:27:15.042Z,985.9
2018-12-03T08:30:15.657Z,985.9
2018-12-03T08:33:15.223Z,986.0
2018-12-03T08:36:15.882Z,985.9
2018-12-03T08:39:15.570Z,985.9
2018-12-03T08:42:15.269Z,985.9
2018-12-03T08:45:15.120Z,985.9
2018-12-03T08:48:15.897Z,985.8
2018-12-03T08:51:15.898Z,985.8
2018-12-03T08:54:15.723Z,985.7
2018-12-03T08:57:15.432Z,985.7
2018-12-03T09:00:15.105Z,985.8
2018-12-03T09:03:15.555Z,985.7
2018-12-03T09:06:15.784Z,985.9
2018-12-03T09:09:15.555Z,985.8
2018-12-03T09:12:15.076Z,985.8
2018-12-03T09:15:14.984Z,985.9
2018-12-03T09:18:15.700Z,986.0
2018-12-03T09:21:15.004Z,985.9
2018-12-03T09:24:14.996Z,985.9
2018-12-03T09:27:15.713Z,986.0
2018-12-03T09:30:15.314Z,985.9
2018-12-03T09:33:15.004Z,985.9
2018-12-03T09:36:15.722Z,985.9
2018-12-03T09:39:15.544Z,985.9
2018-12-03T09:42:15.051Z,985.9
2018-12-03T09:45:15.261Z,985.8
2018-12-03T09:48:15.052Z,985.9
2018-12-03T09:51:15.749Z,985.9
2018-12-03T09:54:15.769Z,985.9
2018-12-03T09:57:15.637Z,985.9
2018-12-03T10:00:15.372Z,985.9
2018-12-03T10:03:15.207Z,985.9
2018-12-03T10:06:15.586Z,985.8
2018-12-03T10:09:15.215Z,985.9
2018-12-03T10:12:18.235Z,985.8
2018-12-03T10:15:15.115Z,985.7
2018-12-03T10:18:15.242Z,985.6
2018-12-03T10:21:15.955Z,985.6
2018-12-03T10:24:15.746Z,985.6
2018-12-03T10:27:15.407Z,985.6
2018-12-03T10:30:15.289Z,985.5
2018-12-03T10:33:15.848Z,985.6
2018-12-03T10:36:15.583Z,985.6
2018-12-03T10:39:15.440Z,985.6
2018-12-03T10:42:14.977Z,985.5
2018-12-03T10:45:15.747Z,985.6
2018-12-03T10:48:15.301Z,985.6
2018-12-03T10:51:15.090Z,985.5
2018-12-03T10:54:14.935Z,985.6
2018-12-03T10:57:15.530Z,985.5
2018-12-03T11:00:15.232Z,985.6
2018-12-03T11:03:15.433Z,985.7
2018-12-03T11:06:15.744Z,985.6
2018-12-03T11:09:15.212Z,985.4
2018-12-03T11:12:15.734Z,984.9
2018-12-03T11:15:15.393Z,985.2
2018-12-03T11:18:15.361Z,985.3
2018-12-03T11:21:15.004Z,985.3
2018-12-03T11:24:15.287Z,985.3
2018-12-03T11:27:15.030Z,985.3
2018-12-03T11:30:15.949Z,985.3
2018-12-03T11:33:15.706Z,985.1
2018-12-03T11:36:15.481Z,985.2
2018-12-03T11:39:15.265Z,985.3
2018-12-03T11:42:15.480Z,985.4
2018-12-03T11:45:15.758Z,985.3
2018-12-03T11:48:15.605Z,985.3
2018-12-03T11:51:15.246Z,985.3
2018-12-03T11:54:15.893Z,985.5
2018-12-03T11:57:15.449Z,985.4
2018-12-03T12:00:15.154Z,985.4
2018-12-03T12:03:15.801Z,985.5
2018-12-03T12:06:15.246Z,985.4
2018-12-03T12:09:20.893Z,985.5
2018-12-03T12:12:15.885Z,985.5
2018-12-03T12:15:15.494Z,985.5
2018-12-03T12:18:15.211Z,985.2
2018-12-03T12:21:15.780Z,985.4
2018-12-03T12:24:15.495Z,985.2
2018-12-03T12:27:15.337Z,985.1
2018-12-03T12:30:14.963Z,985.1
2018-12-03T12:33:15.477Z,985.1
2018-12-03T12:36:15.025Z,985.1
2018-12-03T12:39:15.806Z,985.0
2018-12-03T12:42:15.379Z,984.9
2018-12-03T12:45:15.508Z,985.1
2018-12-03T12:48:15.429Z,985.1
2018-12-03T12:51:15.177Z,985.0
2018-12-03T12:54:15.904Z,985.0
2018-12-03T12:57:15.458Z,985.1
2018-12-03T13:00:15.273Z,984.9
2018-12-03T13:03:15.065Z,984.9
2018-12-03T13:06:15.860Z,984.5
2018-12-03T13:09:15.473Z,984.5
2018-12-03T13:12:15.045Z,984.5
2018-12-03T13:15:15.834Z,984.5
2018-12-03T13:18:15.591Z,984.5
2018-12-03T13:21:15.334Z,984.5
2018-12-03T13:24:14.987Z,984.6
2018-12-03T13:27:15.708Z,984.8
2018-12-03T13:30:15.319Z,984.8
2018-12-03T13:33:15.022Z,984.9
2018-12-03T13:36:15.565Z,984.8
2018-12-03T13:39:15.269Z,984.8
2018-12-03T13:42:14.945Z,984.8
2018-12-03T13:45:15.769Z,984.6
2018-12-03T13:48:15.333Z,984.6
2018-12-03T13:51:15.088Z,984.7
2018-12-03T13:54:15.671Z,984.7
2018-12-03T13:57:15.632Z,984.8
2018-12-03T14:00:15.425Z,984.7
2018-12-03T14:03:15.512Z,984.8
2018-12-03T14:06:15.367Z,984.7
2018-12-03T14:09:14.954Z,984.8
2018-12-03T14:12:15.687Z,984.8
2018-12-03T14:15:15.694Z,984.6
2018-12-03T14:18:15.279Z,984.5
2018-12-03T14:21:15.113Z,984.4
2018-12-03T14:24:15.643Z,984.4
2018-12-03T14:27:15.294Z,984.4
2018-12-03T14:30:14.989Z,984.4
2018-12-03T14:33:15.762Z,984.3
2018-12-03T14:36:15.657Z,984.4
2018-12-03T14:39:15.305Z,984.2
2018-12-03T14:42:15.020Z,984.2
2018-12-03T14:45:15.786Z,984.2
2018-12-03T14:48:15.464Z,984.3
2018-12-03T14:51:15.088Z,984.3
2018-12-03T14:54:15.723Z,984.1
2018-12-03T14:57:15.378Z,984.0
2018-12-03T15:00:15.051Z,984.2
2018-12-03T15:03:15.820Z,984.3
2018-12-03T15:06:15.364Z,984.3
2018-12-03T15:09:16.118Z,984.5
2018-12-03T15:12:15.783Z,984.5
2018-12-03T15:15:15.480Z,984.6
2018-12-03T15:18:15.328Z,984.6
2018-12-03T15:21:14.994Z,984.5
2018-12-03T15:24:15.765Z,984.6
2018-12-03T15:27:15.390Z,984.5
2018-12-03T15:30:15.061Z,984.4
2018-12-03T15:33:15.624Z,984.4
2018-12-03T15:36:15.603Z,984.2
2018-12-03T15:39:15.122Z,984.3
2018-12-03T15:42:15.845Z,984.4
2018-12-03T15:45:15.522Z,984.5
2018-12-03T15:48:15.071Z,984.5
2018-12-03T15:51:15.821Z,984.4
2018-12-03T15:54:15.373Z,984.5
2018-12-03T15:57:15.013Z,984.3
2018-12-03T16:00:15.818Z,984.2
2018-12-03T16:03:15.568Z,984.3
2018-12-03T16:06:15.204Z,984.2
2018-12-03T16:09:14.817Z,984.1
2018-12-03T16:12:15.537Z,984.0
2018-12-03T16:15:15.174Z,984.0
2018-12-03T16:18:15.054Z,983.8
2018-12-03T16:21:15.792Z,983.8
2018-12-03T16:24:15.518Z,983.8
2018-12-03T16:27:15.116Z,983.6
2018-12-03T16:30:15.915Z,983.9
2018-12-03T16:33:15.730Z,983.9
2018-12-03T16:36:15.602Z,983.7
2018-12-03T16:39:15.240Z,983.6
2018-12-03T16:42:15.037Z,983.6
2018-12-03T16:45:15.750Z,983.6
2018-12-03T16:48:15.548Z,983.5
2018-12-03T16:51:15.546Z,983.6
2018-12-03T16:54:15.186Z,983.6
2018-12-03T16:57:15.787Z,983.5
2018-12-03T17:00:15.405Z,983.6
2018-12-03T17:03:14.981Z,983.8
2018-12-03T17:06:15.749Z,983.7
2018-12-03T17:09:15.238Z,983.6
2018-12-03T17:12:15.036Z,983.7
2018-12-03T17:15:15.801Z,983.7
2018-12-03T17:18:15.586Z,983.7
2018-12-03T17:21:15.213Z,983.7
2018-12-03T17:24:15.806Z,983.7
2018-12-03T17:27:15.114Z,983.8
2018-12-03T17:30:15.748Z,983.8
2018-12-03T17:33:15.446Z,983.8
2018-12-03T17:36:15.191Z,983.8
2018-12-03T17:39:15.022Z,983.8
2018-12-03T17:42:15.782Z,983.8
2018-12-03T17:45:15.435Z,983.6
2018-12-03T17:48:15.199Z,983.6
2018-12-03T17:51:14.942Z,983.6
2018-12-03T17:54:15.721Z,983.6
2018-12-03T17:57:15.259Z,983.7
2018-12-03T18:00:14.909Z,983.8
2018-12-03T18:03:15.680Z,983.7
2018-12-03T18:06:17.183Z,983.7
2018-12-03T18:09:15.938Z,983.8
2018-12-03T18:12:15.814Z,983.8
2018-12-03T18:15:15.674Z,983.7
2018-12-03T18:18:15.484Z,983.7
2018-12-03T18:21:15.457Z,983.8
2018-12-03T18:24:15.127Z,983.8
2018-12-03T18:27:15.925Z,983.9
2018-12-03T18:30:15.599Z,984.0
2018-12-03T18:33:15.321Z,984.0
2018-12-03T18:36:15.145Z,984.0
2018-12-03T18:39:15.774Z,984.1
2018-12-03T18:42:15.444Z,984.2
2018-12-03T18:45:15.385Z,984.3
2018-12-03T18:48:15.197Z,984.3
2018-12-03T18:51:15.178Z,984.3
2018-12-03T18:54:15.529Z,984.2
2018-12-03T18:57:15.218Z,984.2
2018-12-03T19:00:15.031Z,984.3
2018-12-03T19:03:15.176Z,984.3
2018-12-03T19:06:15.106Z,984.3
2018-12-03T19:09:14.989Z,984.4
2018-12-03T19:12:15.679Z,984.4
2018-12-03T19:15:15.609Z,984.4
2018-12-03T19:18:15.744Z,984.5
2018-12-03T19:21:15.527Z,984.5
2018-12-03T19:24:15.206Z,984.6
2018-12-03T19:27:15.147Z,984.6
2018-12-03T19:30:15.795Z,984.6
2018-12-03T19:33:15.540Z,984.7
2018-12-03T19:36:15.247Z,984.8
2018-12-03T19:39:15.105Z,984.8
2018-12-03T19:42:15.690Z,984.9
2018-12-03T19:45:15.475Z,984.9
2018-12-03T19:48:15.343Z,984.9
2018-12-03T19:51:15.223Z,985.0
2018-12-03T19:54:14.956Z,985.1
2018-12-03T19:57:15.937Z,985.1
2018-12-03T20:00:14.860Z,985.1
2018-12-03T20:03:15.746Z,985.1
2018-12-03T20:06:15.504Z,985.2
2018-12-03T20:09:15.758Z,985.2
2018-12-03T20:12:15.627Z,985.3
2018-12-03T20:15:15.491Z,985.4
2018-12-03T20:18:15.347Z,985.5
2018-12-03T20:21:15.473Z,985.6
2018-12-03T20:24:15.380Z,985.6
2018-12-03T20:27:15.440Z,985.7
2018-12-03T20:30:15.676Z,985.8
2018-12-03T20:33:14.895Z,985.9
2018-12-03T20:36:15.131Z,986.1
2018-12-03T20:39:15.705Z,986.0
2018-12-03T20:42:14.965Z,986.1
2018-12-03T20:45:15.633Z,986.2
2018-12-03T20:48:15.036Z,986.3
2018-12-03T20:51:15.299Z,986.2
2018-12-03T20:54:15.508Z,986.2
2018-12-03T20:57:15.431Z,986.2
2018-12-03T21:00:15.147Z,986.4
2018-12-03T21:03:15.835Z,986.4
2018-12-03T21:06:15.832Z,986.3
2018-12-03T21:09:15.614Z,986.4
2018-12-03T21:12:15.260Z,986.5
2018-12-03T21:15:15.091Z,986.6
2018-12-03T21:18:14.869Z,986.8
2018-12-03T21:21:15.783Z,986.9
2018-12-03T21:24:15.793Z,986.8
2018-12-03T21:27:15.573Z,986.8
2018-12-03T21:30:15.046Z,986.9
2018-12-03T21:33:15.854Z,986.8
2018-12-03T21:36:15.507Z,986.9
2018-12-03T21:39:15.602Z,987.0
2018-12-03T21:42:15.306Z,987.1
2018-12-03T21:45:15.843Z,987.2
2018-12-03T21:48:15.702Z,987.2
2018-12-03T21:51:15.169Z,987.2
2018-12-03T21:54:15.064Z,987.3
2018-12-03T21:57:15.756Z,987.4
2018-12-03T22:00:15.328Z,987.5
2018-12-03T22:03:15.022Z,987.5
2018-12-03T22:06:15.729Z,987.5
2018-12-03T22:09:15.341Z,987.5
2018-12-03T22:12:14.953Z,987.5
2018-12-03T22:15:15.645Z,987.5
2018-12-03T22:18:15.222Z,987.6
2018-12-03T22:21:15.872Z,987.6
2018-12-03T22:24:15.610Z,987.6
2018-12-03T22:27:15.395Z,987.7
2018-12-03T22:30:14.939Z,987.7
2018-12-03T22:33:15.687Z,987.7
2018-12-03T22:36:15.407Z,987.7
2018-12-03T22:39:15.274Z,987.8
2018-12-03T22:42:14.973Z,987.8
2018-12-03T22:45:15.687Z,987.9
2018-12-03T22:48:15.239Z,987.9
2018-12-03T22:51:15.023Z,988.0
2018-12-03T22:54:15.654Z,988.0
2018-12-03T22:57:15.431Z,988.0
2018-12-03T23:00:15.058Z,988.0
2018-12-03T23:03:15.082Z,988.1
2018-12-03T23:06:15.730Z,988.2
2018-12-03T23:09:15.322Z,988.2
2018-12-03T23:12:15.007Z,988.2
2018-12-03T23:15:15.747Z,988.3
2018-12-03T23:18:15.741Z,988.3
2018-12-03T23:21:15.858Z,988.4
2018-12-03T23:24:15.040Z,988.4
2018-12-03T23:27:15.651Z,988.4
2018-12-03T23:30:15.267Z,988.4
2018-12-03T23:33:14.940Z,988.5
2018-12-03T23:36:15.676Z,988.4
2018-12-03T23:39:15.240Z,988.5
2018-12-03T23:42:15.267Z,988.5
2018-12-03T23:45:15.812Z,988.6
2018-12-03T23:48:16.015Z,988.6
2018-12-03T23:51:15.417Z,988.5
2018-12-03T23:54:15.627Z,988.6
2018-12-03T23:57:15.657Z,988.7
